Time;durP1;ratioP1;P1;durP2;ratioP2;P2;SDS_P1;SDS_P2;PMS_P1;PMS_P2;Temp;Humidity;BMP_temperature;BMP_pressure;BME280_temperature;BME280_humidity;BME280_pressure;Samples;Min_cycle;Max_cycle;Signal;HPM_P1;HPM_P2
2023/09/25 00:00:40;;;;;;;10.65;7.45;;;10.10;99.90;;;;;;2108312;28;20016;-74
2023/09/25 00:01:43;;;;;;;8.07;7.20;;;10.10;99.90;;;;;;2106749;28;20055;-72
2023/09/25 00:02:43;;;;;;;9.90;7.47;;;10.10;99.90;;;;;;2101805;28;20024;-73
2023/09/25 00:03:44;;;;;;;8.93;7.60;;;10.10;99.90;;;;;;2105582;28;20031;-73
2023/09/25 00:04:44;;;;;;;9.15;7.68;;;10.10;99.90;;;;;;2102371;28;20078;-73
2023/09/25 00:05:47;;;;;;;8.75;7.30;;;10.10;99.90;;;;;;2099639;28;20036;-72
2023/09/25 00:06:48;;;;;;;8.10;7.30;;;10.10;99.90;;;;;;2106791;28;20032;-73
2023/09/25 00:07:49;;;;;;;8.20;7.40;;;10.20;99.90;;;;;;2108202;28;20504;-79
2023/09/25 00:08:49;;;;;;;12.32;7.82;;;10.10;99.90;;;;;;2099902;28;20031;-79
2023/09/25 00:09:50;;;;;;;9.15;7.07;;;10.20;99.90;;;;;;2100518;28;20116;-80
2023/09/25 00:10:50;;;;;;;9.15;7.30;;;10.20;99.90;;;;;;2107383;28;20031;-79
2023/09/25 00:11:51;;;;;;;9.32;7.88;;;10.20;99.90;;;;;;2108195;28;20078;-80
2023/09/25 00:12:52;;;;;;;10.38;7.50;;;10.20;99.90;;;;;;2095551;28;20464;-79
2023/09/25 00:13:53;;;;;;;32.70;7.40;;;10.20;99.90;;;;;;2107973;28;20027;-79
2023/09/25 00:14:53;;;;;;;8.85;7.70;;;10.20;99.90;;;;;;2099864;28;20051;-77
2023/09/25 00:15:54;;;;;;;10.15;7.53;;;10.20;99.90;;;;;;2099358;28;20471;-78
2023/09/25 00:16:55;;;;;;;8.00;7.20;;;10.20;99.90;;;;;;2091175;28;20028;-78
2023/09/25 00:17:57;;;;;;;9.57;7.30;;;10.20;99.90;;;;;;2087095;28;20577;-79
2023/09/25 00:18:58;;;;;;;10.15;8.13;;;10.10;99.90;;;;;;2087427;28;20028;-79
2023/09/25 00:19:59;;;;;;;8.05;7.20;;;10.10;99.90;;;;;;2091094;28;20036;-79
2023/09/25 00:20:59;;;;;;;8.38;7.50;;;10.10;99.90;;;;;;2090612;28;20019;-79
2023/09/25 00:22:00;;;;;;;8.40;7.47;;;10.00;99.90;;;;;;2097902;28;20024;-78
2023/09/25 00:23:01;;;;;;;8.40;7.15;;;10.00;99.90;;;;;;2099634;28;20116;-80
2023/09/25 00:24:02;;;;;;;9.52;7.70;;;10.00;99.90;;;;;;2104904;28;20031;-79
2023/09/25 00:25:04;;;;;;;9.50;7.60;;;10.00;99.90;;;;;;2103591;28;20036;-79
2023/09/25 00:26:06;;;;;;;8.32;7.43;;;10.00;99.90;;;;;;2104528;28;20020;-79
2023/09/25 00:27:07;;;;;;;8.05;7.25;;;9.90;99.90;;;;;;2098802;28;20624;-78
2023/09/25 00:28:07;;;;;;;9.20;7.80;;;9.90;99.90;;;;;;2107702;28;20084;-78
2023/09/25 00:29:10;;;;;;;8.60;7.30;;;9.90;99.90;;;;;;2097498;28;20482;-79
2023/09/25 00:30:11;;;;;;;8.73;7.43;;;9.90;99.90;;;;;;2090045;28;20044;-78
2023/09/25 00:31:12;;;;;;;9.93;7.18;;;9.90;99.90;;;;;;2087064;28;20361;-79
2023/09/25 00:32:12;;;;;;;8.00;6.90;;;9.90;99.90;;;;;;2099631;28;20028;-79
2023/09/25 00:33:14;;;;;;;9.02;7.15;;;9.90;99.90;;;;;;2107817;28;20534;-79
2023/09/25 00:34:15;;;;;;;8.95;7.05;;;9.80;99.90;;;;;;2090984;28;20061;-78
2023/09/25 00:35:16;;;;;;;8.70;6.85;;;9.80;99.90;;;;;;2093692;28;20017;-79
2023/09/25 00:36:18;;;;;;;7.80;7.05;;;9.90;99.90;;;;;;2102292;28;20035;-79
2023/09/25 00:37:18;;;;;;;8.73;7.30;;;9.90;99.90;;;;;;2100247;28;20339;-79
2023/09/25 00:38:22;;;;;;;9.60;7.10;;;9.80;99.90;;;;;;2107969;28;20024;-78
2023/09/25 00:39:23;;;;;;;8.18;7.20;;;9.90;99.90;;;;;;2099117;28;20036;-79
2023/09/25 00:40:24;;;;;;;9.90;7.80;;;9.80;99.90;;;;;;2097227;28;20532;-79
2023/09/25 00:41:25;;;;;;;9.70;7.40;;;9.80;99.90;;;;;;2078907;28;20083;-77
2023/09/25 00:42:26;;;;;;;11.38;8.07;;;9.80;99.90;;;;;;2095347;28;20042;-78
2023/09/25 00:43:27;;;;;;;10.52;8.30;;;9.80;99.90;;;;;;2098530;28;20024;-78
2023/09/25 00:44:27;;;;;;;9.32;8.32;;;9.70;99.90;;;;;;2098071;28;20107;-78
2023/09/25 00:45:28;;;;;;;10.05;8.45;;;9.70;99.90;;;;;;2098886;28;20039;-78
2023/09/25 00:46:30;;;;;;;9.73;7.80;;;9.70;99.90;;;;;;2095083;28;20042;-79
2023/09/25 00:47:31;;;;;;;8.75;7.80;;;9.70;99.90;;;;;;2104159;27;20031;-78
2023/09/25 00:48:32;;;;;;;8.60;7.63;;;9.60;99.90;;;;;;2106102;27;20548;-78
2023/09/25 00:49:32;;;;;;;8.82;7.93;;;9.70;99.90;;;;;;2101340;28;20470;-79
2023/09/25 00:50:34;;;;;;;9.20;8.10;;;9.70;99.90;;;;;;2090352;28;20016;-80
2023/09/25 00:51:35;;;;;;;11.15;8.00;;;9.60;99.90;;;;;;2087038;28;20028;-79
2023/09/25 00:52:39;;;;;;;10.18;7.80;;;9.60;99.90;;;;;;2103549;28;20032;-80
2023/09/25 00:53:41;;;;;;;9.73;8.32;;;9.60;99.90;;;;;;2098962;28;20152;-79
2023/09/25 00:54:42;;;;;;;9.38;7.85;;;9.60;99.90;;;;;;2082714;28;20060;-79
2023/09/25 00:55:42;;;;;;;8.93;7.90;;;9.60;99.90;;;;;;2076748;28;20021;-80
2023/09/25 00:56:43;;;;;;;10.32;7.88;;;9.60;99.90;;;;;;2079547;28;20032;-79
2023/09/25 00:57:48;;;;;;;9.75;8.15;;;9.60;99.90;;;;;;2087805;28;20037;-78
2023/09/25 00:58:49;;;;;;;8.57;7.68;;;9.70;99.90;;;;;;2089825;28;20267;-79
2023/09/25 00:59:50;;;;;;;9.15;7.47;;;9.70;99.90;;;;;;2089983;28;20491;-79
2023/09/25 01:00:53;;;;;;;8.05;7.25;;;9.70;99.90;;;;;;2095064;28;20024;-79
2023/09/25 01:01:54;;;;;;;9.45;7.72;;;9.70;99.90;;;;;;2095745;28;20024;-78
2023/09/25 01:02:55;;;;;;;8.88;7.93;;;9.60;99.90;;;;;;2095101;28;20047;-79
2023/09/25 01:03:56;;;;;;;8.70;7.20;;;9.60;99.90;;;;;;2095038;28;20067;-77
2023/09/25 01:05:00;;;;;;;8.50;7.63;;;9.60;99.90;;;;;;2090796;28;20108;-79
2023/09/25 01:06:01;;;;;;;8.63;7.40;;;9.60;99.90;;;;;;2082549;28;20033;-78
2023/09/25 01:07:03;;;;;;;8.73;7.50;;;9.60;99.90;;;;;;2080188;28;20116;-78
2023/09/25 01:08:04;;;;;;;8.30;7.40;;;9.60;99.90;;;;;;2089679;28;20024;-79
2023/09/25 01:09:04;;;;;;;8.95;7.22;;;9.60;99.90;;;;;;2100112;27;20032;-77
2023/09/25 01:10:13;;;;;;;8.52;7.65;;;9.60;99.90;;;;;;2114031;27;20505;-79
2023/09/25 01:11:13;;;;;;;10.13;8.07;;;9.50;99.90;;;;;;2099292;28;20106;-78
2023/09/25 01:12:14;;;;;;;8.65;7.38;;;9.50;99.90;;;;;;2104128;28;20097;-79
2023/09/25 01:13:15;;;;;;;9.88;7.63;;;9.50;99.90;;;;;;2099016;28;20104;-79
2023/09/25 01:14:15;;;;;;;8.85;7.60;;;9.50;99.90;;;;;;2082553;28;20485;-79
2023/09/25 01:15:16;;;;;;;9.25;7.88;;;9.50;99.90;;;;;;2085105;28;20040;-78
2023/09/25 01:16:17;;;;;;;10.10;7.88;;;9.40;99.90;;;;;;2096552;28;20063;-78
2023/09/25 01:17:18;;;;;;;8.68;7.50;;;9.40;99.90;;;;;;2099342;28;20441;-77
2023/09/25 01:18:18;;;;;;;8.55;7.38;;;9.40;99.90;;;;;;2093106;28;20032;-79
2023/09/25 01:19:19;;;;;;;9.30;7.25;;;9.40;99.90;;;;;;2094807;28;20534;-78
2023/09/25 01:20:22;;;;;;;8.13;7.32;;;9.50;99.90;;;;;;2093888;28;20040;-78
2023/09/25 01:21:23;;;;;;;9.18;7.18;;;9.50;99.90;;;;;;2099330;28;20027;-79
2023/09/25 01:22:25;;;;;;;8.70;7.65;;;9.40;99.90;;;;;;2095348;28;20036;-79
2023/09/25 01:23:26;;;;;;;8.73;7.90;;;9.40;99.90;;;;;;2100106;28;20074;-77
2023/09/25 01:24:27;;;;;;;8.88;7.97;;;9.40;99.90;;;;;;2090914;28;20043;-78
2023/09/25 01:25:28;;;;;;;10.23;7.68;;;9.40;99.90;;;;;;2090831;28;20098;-79
2023/09/25 01:26:30;;;;;;;9.88;7.90;;;9.40;99.90;;;;;;2087308;28;20074;-78
2023/09/25 01:27:30;;;;;;;8.43;7.63;;;9.40;99.90;;;;;;2082465;28;20029;-79
2023/09/25 01:28:31;;;;;;;8.70;7.80;;;9.30;99.90;;;;;;2085382;28;20535;-77
2023/09/25 01:29:32;;;;;;;8.82;7.40;;;9.40;99.90;;;;;;2086822;28;20032;-79
2023/09/25 01:30:32;;;;;;;8.95;7.25;;;9.40;99.90;;;;;;2090473;28;20465;-78
2023/09/25 01:31:33;;;;;;;8.32;7.22;;;9.40;99.90;;;;;;2097211;28;20063;-80
2023/09/25 01:32:34;;;;;;;10.85;7.90;;;9.30;99.90;;;;;;2092368;28;20020;-78
2023/09/25 01:33:35;;;;;;;8.63;7.50;;;9.30;99.90;;;;;;2094650;28;20116;-77
2023/09/25 01:34:36;;;;;;;10.07;7.80;;;9.30;99.90;;;;;;2099047;28;20027;-79
2023/09/25 01:35:36;;;;;;;10.05;7.75;;;9.40;99.90;;;;;;2087319;28;20147;-78
2023/09/25 01:36:37;;;;;;;8.30;7.45;;;9.30;99.90;;;;;;2106017;27;20107;-78
2023/09/25 01:37:38;;;;;;;8.23;7.40;;;9.30;99.90;;;;;;2104360;27;20039;-78
2023/09/25 01:38:38;;;;;;;9.43;7.30;;;9.30;99.90;;;;;;2098782;28;20019;-78
2023/09/25 01:39:39;;;;;;;9.45;8.02;;;9.30;99.90;;;;;;2094224;28;20058;-78
2023/09/25 01:40:40;;;;;;;8.80;7.90;;;9.30;99.90;;;;;;2094392;28;20109;-79
2023/09/25 01:41:41;;;;;;;8.55;7.70;;;9.30;99.90;;;;;;2099005;28;20143;-78
2023/09/25 01:42:43;;;;;;;9.60;7.60;;;9.30;99.90;;;;;;2082303;28;20141;-78
2023/09/25 01:43:43;;;;;;;9.75;7.80;;;9.30;99.90;;;;;;2098748;28;20016;-79
2023/09/25 01:44:44;;;;;;;9.32;7.80;;;9.30;99.90;;;;;;2107712;28;20577;-78
2023/09/25 01:45:44;;;;;;;8.63;7.70;;;9.30;99.90;;;;;;2102633;28;20028;-78
2023/09/25 01:46:45;;;;;;;9.55;7.90;;;9.30;99.90;;;;;;2095094;28;20133;-79
2023/09/25 01:47:50;;;;;;;8.90;7.30;;;9.20;99.90;;;;;;2094051;28;20136;-80
2023/09/25 01:48:51;;;;;;;8.55;7.65;;;9.30;99.90;;;;;;2086561;28;20025;-79
2023/09/25 01:49:53;;;;;;;9.82;8.10;;;9.30;99.90;;;;;;2082222;28;20085;-78
2023/09/25 01:50:53;;;;;;;9.25;8.02;;;9.20;99.90;;;;;;2091804;28;20021;-78
2023/09/25 01:51:54;;;;;;;8.85;7.70;;;9.30;99.90;;;;;;2090444;28;20035;-79
2023/09/25 01:52:57;;;;;;;9.65;8.27;;;9.20;99.90;;;;;;2101213;28;20636;-80
2023/09/25 01:53:58;;;;;;;9.57;8.10;;;9.20;99.90;;;;;;2095072;28;20494;-77
2023/09/25 01:55:01;;;;;;;10.68;8.13;;;9.20;99.90;;;;;;2095304;28;20049;-78
2023/09/25 01:56:14;;;;;;;10.27;8.07;;;9.20;99.90;;;;;;2099537;28;20027;-79
2023/09/25 01:57:15;;;;;;;8.70;7.80;;;9.20;99.90;;;;;;2105343;28;20115;-78
2023/09/25 01:58:16;;;;;;;11.15;8.48;;;9.20;99.90;;;;;;2106899;28;20483;-80
2023/09/25 01:59:17;;;;;;;9.40;7.95;;;9.20;99.90;;;;;;2097981;28;20109;-72
2023/09/25 02:00:18;;;;;;;9.07;8.13;;;9.20;99.90;;;;;;2087210;28;20024;-79
2023/09/25 02:01:19;;;;;;;9.80;7.75;;;9.30;99.90;;;;;;2099126;28;20288;-78
2023/09/25 02:02:19;;;;;;;8.68;7.78;;;9.20;99.90;;;;;;2087755;28;20028;-78
2023/09/25 02:03:20;;;;;;;9.30;7.82;;;9.20;99.90;;;;;;2089341;28;20387;-79
2023/09/25 02:04:21;;;;;;;8.65;7.75;;;9.30;99.90;;;;;;2098044;28;20031;-80
2023/09/25 02:05:21;;;;;;;8.88;7.75;;;9.30;99.90;;;;;;2099081;28;20430;-79
2023/09/25 02:06:22;;;;;;;9.48;8.48;;;9.30;99.90;;;;;;2091080;28;20028;-79
2023/09/25 02:07:23;;;;;;;9.00;8.10;;;9.30;99.90;;;;;;2098505;28;20031;-78
2023/09/25 02:08:23;;;;;;;10.05;8.50;;;9.30;99.90;;;;;;2092911;28;20647;-80
2023/09/25 02:09:24;;;;;;;11.48;8.40;;;9.30;99.90;;;;;;2100509;28;20107;-79
2023/09/25 02:10:25;;;;;;;11.00;8.13;;;9.20;99.90;;;;;;2096216;28;20028;-79
2023/09/25 02:11:25;;;;;;;10.30;8.25;;;9.30;99.90;;;;;;2091622;28;20021;-78
2023/09/25 02:12:27;;;;;;;9.82;8.05;;;9.30;99.90;;;;;;2104388;28;20028;-78
2023/09/25 02:13:27;;;;;;;10.82;8.50;;;9.30;99.90;;;;;;2096020;28;20032;-79
2023/09/25 02:14:29;;;;;;;9.57;8.15;;;9.20;99.90;;;;;;2084291;28;20111;-78
2023/09/25 02:15:29;;;;;;;9.02;8.13;;;9.20;99.90;;;;;;2100819;28;20024;-78
2023/09/25 02:16:30;;;;;;;9.10;7.90;;;9.20;99.90;;;;;;2108500;28;20102;-78
2023/09/25 02:17:31;;;;;;;11.73;7.88;;;9.20;99.90;;;;;;2101233;28;20029;-79
2023/09/25 02:18:32;;;;;;;11.80;8.38;;;9.20;99.90;;;;;;2091676;28;20445;-79
2023/09/25 02:19:33;;;;;;;9.90;8.30;;;9.10;99.90;;;;;;2089666;28;20100;-80
2023/09/25 02:20:34;;;;;;;10.05;8.10;;;9.10;99.90;;;;;;2092194;28;20478;-80
2023/09/25 02:21:35;;;;;;;12.15;8.45;;;9.10;99.90;;;;;;2099339;28;20012;-78
2023/09/25 02:22:36;;;;;;;9.35;8.10;;;9.10;99.90;;;;;;2103809;28;20019;-78
2023/09/25 02:23:37;;;;;;;10.10;8.52;;;9.10;99.90;;;;;;2109050;28;20235;-78
2023/09/25 02:24:39;;;;;;;12.18;8.50;;;9.00;99.90;;;;;;2096750;28;20032;-79
2023/09/25 02:25:39;;;;;;;9.07;7.93;;;9.00;99.90;;;;;;2097981;28;20028;-78
2023/09/25 02:26:40;;;;;;;9.52;8.38;;;9.10;99.90;;;;;;2095513;28;20052;-78
2023/09/25 02:27:41;;;;;;;9.07;7.75;;;9.00;99.90;;;;;;2110446;28;20084;-78
2023/09/25 02:28:41;;;;;;;8.98;7.68;;;9.00;99.90;;;;;;2106884;28;20463;-78
2023/09/25 02:29:42;;;;;;;9.82;8.50;;;9.00;99.90;;;;;;2104873;28;20058;-77
2023/09/25 02:30:42;;;;;;;9.35;8.05;;;9.00;99.90;;;;;;2090459;28;20032;-80
2023/09/25 02:31:43;;;;;;;8.77;7.88;;;9.00;99.90;;;;;;2102241;28;20036;-80
2023/09/25 02:32:44;;;;;;;9.48;8.20;;;9.00;99.90;;;;;;2110218;28;20039;-79
2023/09/25 02:33:44;;;;;;;9.68;8.10;;;9.00;99.90;;;;;;2104711;28;20034;-78
2023/09/25 02:34:45;;;;;;;9.77;8.10;;;9.00;99.90;;;;;;2100574;28;20035;-78
2023/09/25 02:35:46;;;;;;;11.88;8.10;;;9.00;99.90;;;;;;2083758;28;20396;-79
2023/09/25 02:36:47;;;;;;;10.30;8.10;;;9.00;99.90;;;;;;2093884;28;20036;-78
2023/09/25 02:37:47;;;;;;;11.60;7.93;;;9.00;99.90;;;;;;2100237;28;20035;-78
2023/09/25 02:38:49;;;;;;;9.43;8.00;;;9.00;99.90;;;;;;2098593;28;20016;-78
2023/09/25 02:39:51;;;;;;;9.93;8.32;;;9.00;99.90;;;;;;2100837;28;20024;-77
2023/09/25 02:40:51;;;;;;;9.20;8.18;;;9.00;99.90;;;;;;2098176;28;20052;-78
2023/09/25 02:41:52;;;;;;;9.25;8.00;;;9.00;99.90;;;;;;2093727;28;20052;-78
2023/09/25 02:42:53;;;;;;;10.70;8.05;;;9.00;99.90;;;;;;2096280;28;20471;-78
2023/09/25 02:43:53;;;;;;;9.75;7.68;;;9.00;99.90;;;;;;2112278;27;20070;-78
2023/09/25 02:44:54;;;;;;;12.15;8.18;;;9.00;99.90;;;;;;2114608;27;20042;-78
2023/09/25 02:45:54;;;;;;;8.82;7.80;;;9.00;99.90;;;;;;2105475;28;20031;-76
2023/09/25 02:46:55;;;;;;;9.27;8.15;;;9.00;99.90;;;;;;2104547;28;20028;-78
2023/09/25 02:47:56;;;;;;;9.02;8.13;;;9.00;99.90;;;;;;2101539;28;20028;-78
2023/09/25 02:48:56;;;;;;;8.63;7.72;;;9.00;99.90;;;;;;2090585;28;20189;-78
2023/09/25 02:49:57;;;;;;;10.30;7.97;;;9.10;99.90;;;;;;2085058;28;20314;-78
2023/09/25 02:50:58;;;;;;;9.02;8.07;;;9.00;99.90;;;;;;2103555;28;20046;-78
2023/09/25 02:51:58;;;;;;;9.30;8.30;;;9.00;99.90;;;;;;2091389;28;20574;-79
2023/09/25 02:52:59;;;;;;;9.18;8.27;;;9.00;99.90;;;;;;2097465;28;20131;-79
2023/09/25 02:54:00;;;;;;;9.63;8.23;;;9.00;99.90;;;;;;2087666;28;20560;-78
2023/09/25 02:55:00;;;;;;;9.40;7.85;;;9.00;99.90;;;;;;2079230;28;20080;-79
2023/09/25 02:56:02;;;;;;;9.82;8.25;;;9.00;99.90;;;;;;2079994;28;20534;-79
2023/09/25 02:57:03;;;;;;;9.52;8.02;;;9.00;99.90;;;;;;2083463;28;20033;-78
2023/09/25 02:58:04;;;;;;;10.85;8.73;;;9.00;99.90;;;;;;2098244;28;20037;-78
2023/09/25 02:59:05;;;;;;;10.98;8.10;;;8.90;99.90;;;;;;2099644;28;20020;-78
2023/09/25 03:00:10;;;;;;;9.40;8.40;;;8.90;99.90;;;;;;2098196;28;20070;-77
2023/09/25 03:01:11;;;;;;;10.35;8.13;;;8.90;99.90;;;;;;2098139;28;20123;-78
2023/09/25 03:02:12;;;;;;;9.80;8.13;;;8.90;99.90;;;;;;2083859;28;20029;-79
2023/09/25 03:03:14;;;;;;;9.68;8.48;;;8.90;99.90;;;;;;2093040;28;20036;-78
2023/09/25 03:04:14;;;;;;;9.30;8.10;;;8.90;99.90;;;;;;2090936;28;20060;-79
2023/09/25 03:05:15;;;;;;;9.82;8.68;;;8.90;99.90;;;;;;2097024;28;20024;-78
2023/09/25 03:06:15;;;;;;;9.50;8.18;;;8.90;99.90;;;;;;2095217;28;20028;-79
2023/09/25 03:07:17;;;;;;;11.00;8.05;;;8.90;99.90;;;;;;2097389;28;20067;-79
2023/09/25 03:08:17;;;;;;;9.23;8.20;;;8.90;99.90;;;;;;2104409;28;20155;-78
2023/09/25 03:09:18;;;;;;;9.10;8.10;;;8.90;99.90;;;;;;2095001;28;20468;-79
2023/09/25 03:10:19;;;;;;;8.75;7.85;;;8.90;99.90;;;;;;2096616;28;20436;-78
2023/09/25 03:11:20;;;;;;;10.57;7.72;;;8.80;99.90;;;;;;2100714;28;20023;-78
2023/09/25 03:12:20;;;;;;;9.95;8.18;;;8.80;99.90;;;;;;2104715;28;20035;-78
2023/09/25 03:13:21;;;;;;;10.07;8.60;;;8.80;99.90;;;;;;2100376;28;20052;-78
2023/09/25 03:14:22;;;;;;;10.50;8.48;;;8.80;99.90;;;;;;2104255;28;20092;-78
2023/09/25 03:15:24;;;;;;;10.02;8.80;;;8.80;99.90;;;;;;2095741;28;20547;-78
2023/09/25 03:16:24;;;;;;;10.00;8.15;;;8.80;99.90;;;;;;2100154;28;20589;-78
2023/09/25 03:17:25;;;;;;;10.55;8.90;;;8.70;99.90;;;;;;2085247;28;20028;-76
2023/09/25 03:18:26;;;;;;;10.30;8.57;;;8.70;99.90;;;;;;2105549;28;20879;-78
2023/09/25 03:19:29;;;;;;;9.23;8.23;;;8.70;99.90;;;;;;2087640;28;20523;-77
2023/09/25 03:20:30;;;;;;;9.93;8.32;;;8.70;99.90;;;;;;2094425;28;20450;-78
2023/09/25 03:21:31;;;;;;;9.68;8.65;;;8.70;99.90;;;;;;2088062;28;20036;-79
2023/09/25 03:22:32;;;;;;;10.70;8.43;;;8.70;99.90;;;;;;2091506;28;20067;-78
2023/09/25 03:23:33;;;;;;;9.45;8.38;;;8.70;99.90;;;;;;2083270;28;20116;-79
2023/09/25 03:24:35;;;;;;;10.40;8.52;;;8.70;99.90;;;;;;2096199;28;20027;-78
2023/09/25 03:25:36;;;;;;;9.68;8.63;;;8.70;99.90;;;;;;2108095;28;20104;-76
2023/09/25 03:26:37;;;;;;;10.38;8.52;;;8.60;99.90;;;;;;2102486;28;20028;-77
2023/09/25 03:27:38;;;;;;;9.98;8.23;;;8.70;99.90;;;;;;2092173;28;20024;-76
2023/09/25 03:28:39;;;;;;;11.95;8.95;;;8.60;99.90;;;;;;2099324;28;20478;-79
2023/09/25 03:29:40;;;;;;;11.82;9.10;;;8.70;99.90;;;;;;2100879;28;20042;-79
2023/09/25 03:30:40;;;;;;;10.57;8.80;;;8.70;99.90;;;;;;2091603;28;20028;-79
2023/09/25 03:31:41;;;;;;;10.85;9.05;;;8.60;99.90;;;;;;2090312;28;20017;-79
2023/09/25 03:32:43;;;;;;;10.10;8.45;;;8.70;99.90;;;;;;2115689;27;20534;-79
2023/09/25 03:33:46;;;;;;;9.55;8.18;;;8.60;99.90;;;;;;2104829;28;20081;-78
2023/09/25 03:34:47;;;;;;;10.00;8.90;;;8.60;99.90;;;;;;2091777;28;20024;-77
2023/09/25 03:35:48;;;;;;;9.63;8.63;;;8.60;99.90;;;;;;2082062;28;20611;-78
2023/09/25 03:36:48;;;;;;;10.70;8.90;;;8.60;99.90;;;;;;2080654;28;20109;-79
2023/09/25 03:37:49;;;;;;;11.60;8.43;;;8.60;99.90;;;;;;2091643;28;20454;-79
2023/09/25 03:38:50;;;;;;;10.35;8.80;;;8.60;99.90;;;;;;2108502;28;20514;-79
2023/09/25 03:39:50;;;;;;;10.30;8.80;;;8.60;99.90;;;;;;2091055;28;20055;-78
2023/09/25 03:40:51;;;;;;;10.00;8.45;;;8.60;99.90;;;;;;2087622;28;20029;-78
2023/09/25 03:41:52;;;;;;;9.88;8.45;;;8.50;99.90;;;;;;2095749;28;20024;-79
2023/09/25 03:42:52;;;;;;;11.50;9.30;;;8.50;99.90;;;;;;2089413;28;20057;-78
2023/09/25 03:43:53;;;;;;;9.40;8.35;;;8.60;99.90;;;;;;2102370;28;20032;-79
2023/09/25 03:44:53;;;;;;;9.40;8.40;;;8.50;99.90;;;;;;2106129;28;20080;-78
2023/09/25 03:45:55;;;;;;;9.45;8.45;;;8.50;99.90;;;;;;2093037;28;20046;-78
2023/09/25 03:46:56;;;;;;;9.50;8.43;;;8.50;99.90;;;;;;2096943;28;20020;-78
2023/09/25 03:47:57;;;;;;;9.80;8.80;;;8.50;99.90;;;;;;2109174;28;20240;-77
2023/09/25 03:49:05;;;;;;;9.50;8.30;;;8.50;99.90;;;;;;2102689;28;20033;-77
2023/09/25 03:50:07;;;;;;;11.48;8.70;;;8.60;99.90;;;;;;2099239;28;20048;-77
2023/09/25 03:51:08;;;;;;;13.05;8.52;;;8.50;99.90;;;;;;2091722;28;20103;-76
2023/09/25 03:52:09;;;;;;;11.10;8.77;;;8.50;99.90;;;;;;2095930;28;20020;-78
2023/09/25 03:53:11;;;;;;;10.82;9.07;;;8.50;99.90;;;;;;2091579;28;20035;-78
2023/09/25 03:54:12;;;;;;;9.60;8.10;;;8.50;99.90;;;;;;2092543;28;20024;-78
2023/09/25 03:55:13;;;;;;;10.77;8.40;;;8.50;99.90;;;;;;2090884;28;20044;-78
2023/09/25 03:56:13;;;;;;;11.15;8.20;;;8.50;99.90;;;;;;2087857;28;20021;-79
2023/09/25 03:57:14;;;;;;;8.70;7.80;;;8.50;99.90;;;;;;2095614;28;20569;-78
2023/09/25 03:58:14;;;;;;;11.63;8.50;;;8.50;99.90;;;;;;2107396;28;20031;-73
2023/09/25 03:59:16;;;;;;;10.35;8.40;;;8.50;99.90;;;;;;2095133;28;20032;-73
2023/09/25 04:00:16;;;;;;;11.60;8.40;;;8.50;99.90;;;;;;2104955;28;20035;-78
2023/09/25 04:01:18;;;;;;;10.60;8.13;;;8.50;99.90;;;;;;2108874;27;20195;-79
2023/09/25 04:02:18;;;;;;;13.25;9.20;;;8.50;99.90;;;;;;2109180;28;20084;-77
2023/09/25 04:03:19;;;;;;;13.00;8.40;;;8.50;99.90;;;;;;2107937;28;20028;-79
2023/09/25 04:04:20;;;;;;;10.10;8.27;;;8.50;99.90;;;;;;2103976;28;20077;-79
2023/09/25 04:05:20;;;;;;;11.77;8.30;;;8.50;99.90;;;;;;2108238;28;20477;-78
2023/09/25 04:06:21;;;;;;;11.80;8.50;;;8.50;99.90;;;;;;2102679;28;20023;-78
2023/09/25 04:07:21;;;;;;;9.82;8.32;;;8.50;99.90;;;;;;2096934;28;20552;-78
2023/09/25 04:08:22;;;;;;;10.13;8.77;;;8.50;99.90;;;;;;2099794;28;20032;-74
2023/09/25 04:09:23;;;;;;;12.63;8.50;;;8.50;99.90;;;;;;2097792;28;20048;-75
2023/09/25 04:10:23;;;;;;;10.50;8.38;;;8.50;99.90;;;;;;2097680;28;20445;-74
2023/09/25 04:11:24;;;;;;;11.77;8.80;;;8.40;99.90;;;;;;2097457;28;20028;-74
2023/09/25 04:12:24;;;;;;;15.55;8.88;;;8.40;99.90;;;;;;2091467;28;20024;-74
2023/09/25 04:13:26;;;;;;;12.23;8.57;;;8.40;99.90;;;;;;2106318;28;20114;-74
2023/09/25 04:14:31;;;;;;;13.25;8.68;;;8.40;99.90;;;;;;2112789;27;20050;-74
2023/09/25 04:15:31;;;;;;;12.15;8.30;;;8.40;99.90;;;;;;2099277;28;20040;-74
2023/09/25 04:16:33;;;;;;;13.38;8.65;;;8.40;99.90;;;;;;2101319;28;20499;-74
2023/09/25 04:17:33;;;;;;;15.75;8.88;;;8.40;99.90;;;;;;2107330;28;20024;-74
2023/09/25 04:18:35;;;;;;;13.82;8.93;;;8.40;99.90;;;;;;2108522;28;20051;-74
2023/09/25 04:19:36;;;;;;;12.32;8.93;;;8.40;99.90;;;;;;2108302;28;20445;-74
2023/09/25 04:20:38;;;;;;;13.98;8.50;;;8.40;99.90;;;;;;2100664;28;20021;-74
2023/09/25 04:21:39;;;;;;;14.82;8.80;;;8.30;99.90;;;;;;2107786;28;20116;-74
2023/09/25 04:22:40;;;;;;;13.85;8.98;;;8.30;99.90;;;;;;2092424;28;20044;-75
2023/09/25 04:23:41;;;;;;;12.25;8.90;;;8.30;99.90;;;;;;2104020;28;20030;-75
2023/09/25 04:24:42;;;;;;;11.52;8.82;;;8.30;99.90;;;;;;2103448;28;20474;-75
2023/09/25 04:25:43;;;;;;;13.43;9.05;;;8.30;99.90;;;;;;2108052;28;20027;-75
2023/09/25 04:26:43;;;;;;;13.32;9.07;;;8.30;99.90;;;;;;2093112;28;20029;-75
2023/09/25 04:27:55;;;;;;;10.88;8.88;;;8.30;99.90;;;;;;2107607;28;20126;-74
2023/09/25 04:28:57;;;;;;;13.93;9.18;;;8.30;99.90;;;;;;2097823;28;20029;-75
2023/09/25 04:29:57;;;;;;;12.50;8.90;;;8.30;99.90;;;;;;2097452;28;20597;-74
2023/09/25 04:30:59;;;;;;;12.68;8.55;;;8.40;99.90;;;;;;2070026;28;20025;-74
2023/09/25 04:32:00;;;;;;;13.43;8.57;;;8.30;99.90;;;;;;2096542;28;20055;-74
2023/09/25 04:33:00;;;;;;;13.73;9.32;;;8.30;99.90;;;;;;2099833;28;20103;-74
2023/09/25 04:34:03;;;;;;;13.43;9.10;;;8.30;99.90;;;;;;2096815;28;20462;-74
2023/09/25 04:35:07;;;;;;;12.95;9.10;;;8.30;99.90;;;;;;2103960;28;20447;-75
2023/09/25 04:36:12;;;;;;;12.00;9.10;;;8.30;99.90;;;;;;2107730;28;20027;-76
2023/09/25 04:37:13;;;;;;;13.73;9.82;;;8.30;99.90;;;;;;2108297;28;20027;-75
2023/09/25 04:38:13;;;;;;;14.57;9.25;;;8.20;99.90;;;;;;2107931;28;20027;-76
2023/09/25 04:39:16;;;;;;;138.32;15.25;;;8.20;99.90;;;;;;2091892;28;20112;-75
2023/09/25 04:41:21;;;;;;;15.45;9.52;;;8.30;99.90;;;;;;2102782;28;20019;-75
2023/09/25 04:42:22;;;;;;;12.88;9.23;;;8.20;99.90;;;;;;2108716;28;20393;-76
2023/09/25 04:43:23;;;;;;;15.32;8.98;;;8.20;99.90;;;;;;2105596;28;20042;-75
2023/09/25 04:44:24;;;;;;;10.50;9.00;;;8.20;99.90;;;;;;2103967;28;20043;-75
2023/09/25 04:45:24;;;;;;;11.23;8.82;;;8.30;99.90;;;;;;2108542;28;20032;-75
2023/09/25 04:46:25;;;;;;;10.77;8.88;;;8.30;99.90;;;;;;2108023;28;20071;-75
2023/09/25 04:47:25;;;;;;;10.82;9.10;;;8.30;99.90;;;;;;2103731;28;20036;-76
2023/09/25 04:48:29;;;;;;;10.40;8.73;;;8.30;99.90;;;;;;2100492;28;20044;-72
2023/09/25 04:49:30;;;;;;;12.85;8.90;;;8.30;99.90;;;;;;2091413;28;20093;-76
2023/09/25 04:50:31;;;;;;;13.52;9.45;;;8.20;99.90;;;;;;2094798;28;20024;-79
2023/09/25 04:51:32;;;;;;;13.77;9.43;;;8.20;99.90;;;;;;2104336;28;20032;-75
2023/09/25 04:52:33;;;;;;;13.15;9.60;;;8.10;99.90;;;;;;2100138;28;20122;-76
2023/09/25 04:53:33;;;;;;;14.50;9.63;;;8.10;99.90;;;;;;2105302;28;20081;-75
2023/09/25 04:54:37;;;;;;;12.57;10.02;;;8.10;99.90;;;;;;2095385;28;20113;-75
2023/09/25 04:55:41;;;;;;;17.98;9.60;;;8.10;99.90;;;;;;2105300;28;20024;-74
2023/09/25 04:56:41;;;;;;;12.85;9.25;;;8.10;99.90;;;;;;2108331;28;20020;-76
2023/09/25 04:57:43;;;;;;;11.00;9.20;;;8.20;99.90;;;;;;2101694;28;20043;-74
2023/09/25 04:58:44;;;;;;;17.02;9.77;;;8.20;99.90;;;;;;2106326;28;20035;-75
2023/09/25 04:59:45;;;;;;;13.70;9.00;;;8.30;99.90;;;;;;2093380;28;20024;-75
2023/09/25 05:00:46;;;;;;;12.68;8.70;;;8.30;99.90;;;;;;2099565;28;20104;-74
2023/09/25 05:01:46;;;;;;;14.43;8.77;;;8.30;99.90;;;;;;2107810;28;20028;-74
2023/09/25 05:02:47;;;;;;;13.90;8.70;;;8.40;99.90;;;;;;2108281;28;20026;-75
2023/09/25 05:03:48;;;;;;;11.40;9.10;;;8.40;99.90;;;;;;2099655;28;20030;-75
2023/09/25 05:04:48;;;;;;;12.20;9.45;;;8.40;99.90;;;;;;2107845;28;20569;-74
2023/09/25 05:05:50;;;;;;;12.55;9.30;;;8.30;99.90;;;;;;2107812;28;20081;-75
2023/09/25 05:06:50;;;;;;;12.25;9.68;;;8.30;99.90;;;;;;2104446;28;20599;-75
2023/09/25 05:07:53;;;;;;;13.05;9.38;;;8.20;99.90;;;;;;2100366;28;20023;-75
2023/09/25 05:08:54;;;;;;;14.15;9.68;;;8.20;99.90;;;;;;2099246;28;20930;-74
2023/09/25 05:09:54;;;;;;;12.65;9.32;;;8.10;99.90;;;;;;2094877;28;20090;-75
2023/09/25 05:10:58;;;;;;;11.85;9.35;;;8.10;99.90;;;;;;2102223;28;20030;-75
2023/09/25 05:11:59;;;;;;;14.98;9.20;;;8.10;99.90;;;;;;2102393;28;20103;-75
2023/09/25 05:12:59;;;;;;;15.13;9.52;;;8.10;99.90;;;;;;2088657;28;20560;-75
2023/09/25 05:14:00;;;;;;;12.25;9.43;;;8.10;99.90;;;;;;2097335;28;20107;-74
2023/09/25 05:15:00;;;;;;;16.80;9.40;;;8.20;99.90;;;;;;2103108;28;20028;-74
2023/09/25 05:16:02;;;;;;;15.68;9.20;;;8.20;99.90;;;;;;2108303;28;20490;-75
2023/09/25 05:17:03;;;;;;;12.57;8.88;;;8.20;99.90;;;;;;2103931;28;20030;-74
2023/09/25 05:18:04;;;;;;;14.02;9.98;;;8.20;99.90;;;;;;2096365;28;20034;-74
2023/09/25 05:19:04;;;;;;;14.30;9.88;;;8.20;99.90;;;;;;2101805;28;20027;-75
2023/09/25 05:20:15;;;;;;;12.45;9.70;;;8.10;99.90;;;;;;2101639;28;20023;-74
2023/09/25 05:21:16;;;;;;;12.52;9.50;;;8.10;99.90;;;;;;2104092;28;20634;-74